Time;durP1;ratioP1;P1;durP2;ratioP2;P2;SDS_P1;SDS_P2;PMS_P1;PMS_P2;Temp;Humidity;BMP_temperature;BMP_pressure;BME280_temperature;BME280_humidity;BME280_pressure;Samples;Min_cycle;Max_cycle;Signal;HPM_P1;HPM_P2
2023/09/16 00:01:00;;;;;;;0.60;0.60;;;12.30;99.90;;;;;;5020435;28;20435;-75
2023/09/16 00:03:25;;;;;;;0.38;0.38;;;12.30;99.90;;;;;;5041113;28;20037;-76
2023/09/16 00:05:51;;;;;;;0.10;0.10;;;12.30;99.90;;;;;;5044234;28;20067;-75
2023/09/16 00:08:16;;;;;;;0.52;0.52;;;12.30;99.90;;;;;;5043744;28;20048;-75
2023/09/16 00:10:42;;;;;;;0.52;0.32;;;12.20;99.90;;;;;;5039044;28;20091;-74
2023/09/16 00:13:08;;;;;;;0.20;0.20;;;12.20;99.90;;;;;;5041749;28;20048;-74
2023/09/16 00:15:33;;;;;;;0.22;0.22;;;12.20;99.90;;;;;;5039067;28;20036;-74
2023/09/16 00:18:00;;;;;;;0.45;0.45;;;12.20;99.90;;;;;;5040884;28;20071;-75
2023/09/16 00:20:27;;;;;;;0.10;0.10;;;12.20;99.90;;;;;;5046417;28;20554;-74
2023/09/16 00:22:52;;;;;;;0.10;0.10;;;12.20;99.90;;;;;;5039436;28;20040;-74
2023/09/16 00:25:19;;;;;;;0.30;0.30;;;12.20;99.90;;;;;;5042313;28;20495;-75
2023/09/16 00:27:44;;;;;;;0.30;0.30;;;12.10;99.90;;;;;;5041369;28;20041;-74
2023/09/16 00:30:10;;;;;;;0.38;0.38;;;12.10;99.90;;;;;;5036643;28;20044;-74
2023/09/16 00:32:36;;;;;;;0.40;0.40;;;12.10;99.90;;;;;;5035252;28;21450;-74
2023/09/16 00:35:03;;;;;;;0.22;0.22;;;12.20;99.90;;;;;;5045281;28;20076;-74
2023/09/16 00:37:29;;;;;;;0.20;0.20;;;12.20;99.90;;;;;;5027995;28;20114;-74
2023/09/16 00:39:55;;;;;;;0.40;0.40;;;12.20;99.90;;;;;;5038149;28;20041;-74
2023/09/16 00:42:20;;;;;;;2.92;0.50;;;12.20;99.90;;;;;;5034384;28;20091;-74
2023/09/16 00:44:46;;;;;;;0.40;0.20;;;12.20;99.90;;;;;;5036182;28;20037;-75
2023/09/16 00:47:12;;;;;;;0.40;0.40;;;12.20;99.90;;;;;;5036028;28;20533;-75
2023/09/16 00:49:38;;;;;;;0.20;0.20;;;12.20;99.90;;;;;;5039654;28;20106;-75
2023/09/16 00:52:04;;;;;;;0.50;0.50;;;12.20;99.90;;;;;;5040271;28;20044;-74
2023/09/16 00:54:31;;;;;;;0.13;0.13;;;12.20;99.90;;;;;;5042699;28;20037;-75
2023/09/16 00:56:57;;;;;;;0.05;0.05;;;12.10;99.90;;;;;;5071076;28;20060;-74
2023/09/16 00:59:25;;;;;;;0.30;0.30;;;12.10;99.90;;;;;;5039385;28;20036;-74
2023/09/16 01:01:52;;;;;;;1.92;0.60;;;12.00;99.90;;;;;;5041477;28;20403;-74
2023/09/16 01:04:19;;;;;;;0.38;0.38;;;11.80;99.90;;;;;;5044885;28;20045;-73
2023/09/16 01:06:46;;;;;;;0.40;0.40;;;11.70;99.90;;;;;;5036029;28;20636;-74
2023/09/16 01:09:15;;;;;;;1.20;0.60;;;11.70;99.90;;;;;;5040843;28;20041;-74
2023/09/16 01:11:41;;;;;;;0.50;0.40;;;11.60;99.90;;;;;;5040784;28;20036;-74
2023/09/16 01:14:11;;;;;;;0.65;0.20;;;11.50;99.90;;;;;;5043641;28;20092;-74
2023/09/16 01:16:43;;;;;;;0.10;0.10;;;11.60;99.90;;;;;;5045593;28;20041;-74
2023/09/16 01:19:27;;;;;;;0.30;0.30;;;11.60;99.90;;;;;;5047018;28;20516;-74
2023/09/16 01:21:53;;;;;;;0.63;0.63;;;11.70;99.90;;;;;;5044745;28;20044;-74
2023/09/16 01:24:22;;;;;;;1.02;0.40;;;11.80;99.90;;;;;;5048116;28;20129;-74
2023/09/16 01:26:47;;;;;;;0.73;0.73;;;11.90;99.90;;;;;;5038288;28;20037;-73
2023/09/16 01:29:14;;;;;;;0.98;0.90;;;11.90;99.90;;;;;;5043467;28;20039;-74
2023/09/16 01:31:44;;;;;;;1.00;0.55;;;11.90;99.90;;;;;;5041709;28;20403;-73
2023/09/16 01:34:39;;;;;;;0.80;0.60;;;11.90;99.90;;;;;;5046257;28;20032;-73
2023/09/16 01:37:07;;;;;;;1.48;0.50;;;11.90;99.90;;;;;;5040477;28;20060;-74
2023/09/16 01:39:33;;;;;;;0.45;0.45;;;11.90;99.90;;;;;;5039687;28;20040;-74
2023/09/16 01:42:00;;;;;;;0.57;0.50;;;11.90;99.90;;;;;;5039681;28;20059;-74
2023/09/16 01:44:26;;;;;;;2.17;0.30;;;11.90;99.90;;;;;;5040586;28;20044;-74
2023/09/16 01:46:55;;;;;;;0.77;0.50;;;11.80;99.90;;;;;;5039576;28;20047;-74
2023/09/16 01:49:21;;;;;;;0.10;0.10;;;11.80;99.90;;;;;;5044076;28;20036;-74
2023/09/16 01:51:47;;;;;;;0.40;0.40;;;11.80;99.90;;;;;;5044010;28;20052;-74
2023/09/16 01:54:12;;;;;;;0.70;0.70;;;11.80;99.90;;;;;;5043000;28;20032;-74
2023/09/16 01:56:38;;;;;;;0.10;0.10;;;11.70;99.90;;;;;;5042813;28;20040;-74
2023/09/16 01:59:03;;;;;;;0.85;0.40;;;11.70;99.90;;;;;;5043322;28;20052;-74
2023/09/16 02:01:29;;;;;;;0.05;0.05;;;11.70;99.90;;;;;;5040422;28;20040;-74
2023/09/16 02:03:55;;;;;;;0.28;0.28;;;11.60;99.90;;;;;;5041485;28;20035;-74
2023/09/16 02:06:21;;;;;;;1.08;0.40;;;11.70;99.90;;;;;;5039219;28;20404;-74
2023/09/16 02:08:46;;;;;;;0.73;0.60;;;11.70;99.90;;;;;;5036530;28;20033;-74
2023/09/16 02:11:12;;;;;;;0.10;0.10;;;11.60;99.90;;;;;;5036322;28;20036;-74
2023/09/16 02:13:38;;;;;;;0.10;0.10;;;11.70;99.90;;;;;;5045360;28;20047;-74
2023/09/16 02:16:04;;;;;;;0.20;0.20;;;11.70;99.90;;;;;;5067302;28;20036;-74
2023/09/16 02:18:29;;;;;;;0.17;0.13;;;11.70;99.90;;;;;;5037302;28;20037;-74
2023/09/16 02:20:55;;;;;;;0.20;0.20;;;11.80;99.90;;;;;;5040643;28;20049;-73
2023/09/16 02:23:22;;;;;;;0.20;0.20;;;11.70;99.90;;;;;;5041299;28;20047;-73
2023/09/16 02:25:47;;;;;;;0.10;0.10;;;11.70;99.90;;;;;;5036664;28;20033;-73
2023/09/16 02:28:13;;;;;;;0.20;0.20;;;11.60;99.90;;;;;;5041819;28;20040;-73
2023/09/16 02:30:39;;;;;;;0.25;0.25;;;11.50;99.90;;;;;;5039510;28;20079;-74
2023/09/16 02:33:04;;;;;;;0.28;0.28;;;11.40;99.90;;;;;;5039922;28;20135;-74
2023/09/16 02:35:30;;;;;;;0.60;0.60;;;11.40;99.90;;;;;;5042224;28;20044;-74
2023/09/16 02:37:57;;;;;;;0.10;0.10;;;11.30;99.90;;;;;;5043244;28;20041;-73
2023/09/16 02:40:22;;;;;;;0.35;0.30;;;11.30;99.90;;;;;;5042147;28;20132;-74
2023/09/16 02:42:48;;;;;;;1.17;0.50;;;11.30;99.90;;;;;;5046973;28;20439;-74
2023/09/16 02:45:13;;;;;;;0.65;0.35;;;11.30;99.90;;;;;;5043602;28;20098;-74
2023/09/16 02:47:39;;;;;;;0.20;0.17;;;11.20;99.90;;;;;;5038884;28;20032;-74
2023/09/16 02:50:05;;;;;;;1.23;0.15;;;11.20;99.90;;;;;;5036456;28;20036;-74
2023/09/16 02:52:31;;;;;;;1.00;0.30;;;11.20;99.90;;;;;;5043536;28;20036;-74
2023/09/16 02:54:56;;;;;;;0.25;0.15;;;11.10;99.90;;;;;;5035776;28;20044;-74
2023/09/16 02:57:22;;;;;;;2.03;0.52;;;11.20;99.90;;;;;;5039104;28;20095;-74
2023/09/16 02:59:47;;;;;;;0.20;0.20;;;11.20;99.90;;;;;;5039645;28;20086;-74
2023/09/16 03:02:13;;;;;;;0.20;0.13;;;11.20;99.90;;;;;;5040020;28;20042;-74
2023/09/16 03:04:38;;;;;;;0.13;0.13;;;11.20;99.90;;;;;;5040344;28;20090;-74
2023/09/16 03:07:04;;;;;;;0.43;0.30;;;11.30;99.90;;;;;;5077563;28;20043;-75
2023/09/16 03:09:30;;;;;;;0.20;0.20;;;11.20;99.90;;;;;;5037649;28;20032;-74
2023/09/16 03:11:55;;;;;;;0.28;0.28;;;11.20;99.90;;;;;;5043438;28;20472;-75
2023/09/16 03:14:21;;;;;;;0.47;0.47;;;11.30;99.90;;;;;;5025401;28;20045;-74
2023/09/16 03:16:47;;;;;;;0.35;0.35;;;11.30;99.90;;;;;;5074396;28;20119;-75
2023/09/16 03:19:16;;;;;;;0.15;0.15;;;11.30;99.90;;;;;;5039585;28;20040;-75
2023/09/16 03:21:41;;;;;;;0.15;0.15;;;11.30;99.90;;;;;;5044757;28;20051;-75
2023/09/16 03:24:07;;;;;;;0.45;0.45;;;11.30;99.90;;;;;;5041612;28;20045;-75
2023/09/16 03:26:33;;;;;;;0.15;0.15;;;11.20;99.90;;;;;;5039701;28;20045;-74
2023/09/16 03:28:58;;;;;;;0.45;0.45;;;11.30;99.90;;;;;;5042010;28;20033;-74
2023/09/16 03:31:24;;;;;;;0.28;0.28;;;11.30;99.90;;;;;;5043032;28;20041;-74
2023/09/16 03:33:49;;;;;;;0.20;0.20;;;11.30;99.90;;;;;;5043842;28;20045;-75
2023/09/16 03:36:15;;;;;;;0.10;0.10;;;11.40;99.90;;;;;;5038310;28;20050;-75
2023/09/16 03:38:46;;;;;;;0.38;0.38;;;11.40;99.90;;;;;;5040605;28;20036;-75
2023/09/16 03:41:11;;;;;;;0.32;0.30;;;11.40;99.90;;;;;;5041869;28;20079;-75
2023/09/16 03:43:37;;;;;;;0.28;0.28;;;11.30;99.90;;;;;;5042374;28;20084;-75
2023/09/16 03:46:02;;;;;;;0.30;0.28;;;11.20;99.90;;;;;;5043135;28;20041;-75
2023/09/16 03:48:29;;;;;;;0.15;0.15;;;11.00;99.90;;;;;;5040281;28;20048;-75
2023/09/16 03:50:54;;;;;;;0.30;0.30;;;11.00;99.90;;;;;;5041643;28;20079;-75
2023/09/16 03:53:25;;;;;;;0.73;0.57;;;10.90;99.90;;;;;;5041346;28;20071;-75
2023/09/16 03:55:53;;;;;;;0.47;0.22;;;10.90;99.90;;;;;;5038210;28;20071;-74
2023/09/16 03:58:19;;;;;;;0.73;0.57;;;10.90;99.90;;;;;;5041645;28;20039;-75
2023/09/16 04:00:45;;;;;;;0.10;0.10;;;10.90;99.90;;;;;;5037433;28;20470;-74
2023/09/16 04:03:11;;;;;;;0.75;0.52;;;10.90;99.90;;;;;;5035741;28;20037;-74
2023/09/16 04:05:37;;;;;;;0.25;0.25;;;10.80;99.90;;;;;;5044362;28;20040;-75
2023/09/16 04:08:03;;;;;;;0.63;0.57;;;10.80;99.90;;;;;;5041278;28;20037;-74
2023/09/16 04:10:28;;;;;;;0.77;0.43;;;10.80;99.90;;;;;;5019854;28;20056;-75
2023/09/16 04:12:54;;;;;;;3.85;0.47;;;10.80;99.90;;;;;;5041819;28;20040;-74
2023/09/16 04:15:20;;;;;;;0.50;0.50;;;10.80;99.90;;;;;;5045611;28;20041;-74
2023/09/16 04:17:45;;;;;;;0.25;0.25;;;10.70;99.90;;;;;;5039324;28;20389;-74
2023/09/16 04:20:11;;;;;;;0.60;0.32;;;10.70;99.90;;;;;;5044865;28;20040;-74
2023/09/16 04:22:36;;;;;;;0.28;0.28;;;10.70;99.90;;;;;;5066392;28;20044;-75
2023/09/16 04:25:02;;;;;;;0.20;0.20;;;10.70;99.90;;;;;;5067369;28;20048;-75
2023/09/16 04:27:28;;;;;;;0.22;0.22;;;10.70;99.90;;;;;;5035629;28;20045;-75
2023/09/16 04:29:54;;;;;;;0.82;0.70;;;10.60;99.90;;;;;;5049926;28;20041;-74
2023/09/16 04:32:19;;;;;;;0.73;0.63;;;10.60;99.90;;;;;;5047946;28;20479;-74
2023/09/16 04:34:45;;;;;;;0.20;0.20;;;10.60;99.90;;;;;;5052649;28;20563;-74
2023/09/16 04:37:10;;;;;;;2.08;0.47;;;10.50;99.90;;;;;;5053517;28;20044;-74
2023/09/16 04:39:36;;;;;;;0.85;0.63;;;10.50;99.90;;;;;;5052657;28;20450;-75
2023/09/16 04:42:02;;;;;;;1.55;0.40;;;10.50;99.90;;;;;;5041319;28;20381;-75
2023/09/16 04:44:28;;;;;;;0.20;0.20;;;10.50;99.90;;;;;;5047136;28;20043;-74
2023/09/16 04:46:54;;;;;;;0.75;0.75;;;10.50;99.90;;;;;;5055353;28;20037;-74
2023/09/16 04:49:23;;;;;;;0.28;0.28;;;10.50;99.90;;;;;;5043748;28;20039;-74
2023/09/16 04:51:49;;;;;;;0.20;0.20;;;10.50;99.90;;;;;;5035288;28;20442;-75
2023/09/16 04:54:14;;;;;;;0.20;0.20;;;10.50;99.90;;;;;;5035207;28;20041;-74
2023/09/16 04:56:40;;;;;;;0.10;0.10;;;10.50;99.90;;;;;;5042736;28;20039;-74
2023/09/16 04:59:06;;;;;;;0.20;0.20;;;10.60;99.90;;;;;;5043537;28;20094;-74
2023/09/16 05:01:32;;;;;;;0.80;0.70;;;10.70;99.90;;;;;;5047306;28;20484;-75
2023/09/16 05:03:58;;;;;;;0.20;0.20;;;10.70;99.90;;;;;;5045158;28;20615;-75
2023/09/16 05:06:24;;;;;;;0.40;0.40;;;10.80;99.90;;;;;;5047661;28;20041;-74
2023/09/16 05:08:50;;;;;;;1.20;0.60;;;10.70;99.90;;;;;;5049799;28;20114;-74
2023/09/16 05:11:16;;;;;;;0.52;0.32;;;10.70;99.90;;;;;;5048774;28;20032;-74
2023/09/16 05:13:42;;;;;;;0.55;0.55;;;10.60;99.90;;;;;;5048926;28;20036;-74
2023/09/16 05:16:10;;;;;;;1.45;0.50;;;10.60;99.90;;;;;;5046983;28;20140;-74
2023/09/16 05:18:36;;;;;;;0.32;0.28;;;10.60;99.90;;;;;;5048685;28;20047;-73
2023/09/16 05:21:02;;;;;;;0.55;0.32;;;10.60;99.90;;;;;;5049976;28;20044;-74
2023/09/16 05:23:30;;;;;;;0.85;0.85;;;10.50;99.90;;;;;;5047126;28;20076;-74
2023/09/16 05:25:56;;;;;;;0.10;0.10;;;10.50;99.90;;;;;;5044438;28;20466;-74
2023/09/16 05:28:21;;;;;;;0.52;0.52;;;10.50;99.90;;;;;;5039145;28;20060;-74
2023/09/16 05:30:47;;;;;;;1.70;0.70;;;10.60;99.90;;;;;;5043594;28;20045;-74
2023/09/16 05:33:13;;;;;;;0.52;0.52;;;10.70;99.90;;;;;;5052973;28;20312;-74
2023/09/16 05:35:40;;;;;;;0.30;0.25;;;10.80;99.90;;;;;;5047783;28;20045;-74
2023/09/16 05:38:06;;;;;;;0.73;0.73;;;10.80;99.90;;;;;;5034278;28;20376;-75
2023/09/16 05:40:32;;;;;;;0.95;0.70;;;10.90;99.90;;;;;;5046651;28;20049;-75
2023/09/16 05:42:57;;;;;;;0.75;0.20;;;11.00;99.90;;;;;;5052617;28;20127;-75
2023/09/16 05:45:23;;;;;;;2.80;0.30;;;10.90;99.90;;;;;;5054319;28;20044;-75
2023/09/16 05:47:49;;;;;;;0.20;0.20;;;10.90;99.90;;;;;;5030169;28;20036;-74
2023/09/16 05:50:16;;;;;;;1.75;0.65;;;11.00;99.90;;;;;;5060774;28;20045;-74
2023/09/16 05:52:41;;;;;;;0.50;0.50;;;11.00;99.90;;;;;;5045717;28;20128;-74
2023/09/16 05:55:07;;;;;;;0.65;0.55;;;11.00;99.90;;;;;;5049721;28;20119;-74
2023/09/16 05:57:33;;;;;;;2.47;0.75;;;11.00;99.90;;;;;;5044764;28;20625;-74
2023/09/16 05:59:58;;;;;;;0.32;0.32;;;11.10;99.90;;;;;;5040427;28;20044;-74
2023/09/16 06:02:24;;;;;;;0.17;0.17;;;11.10;99.90;;;;;;5039035;28;20603;-74
2023/09/16 06:04:50;;;;;;;0.50;0.50;;;11.10;99.90;;;;;;5046359;28;20480;-74
2023/09/16 06:07:16;;;;;;;0.30;0.30;;;11.10;99.90;;;;;;5048395;28;20388;-74
2023/09/16 06:09:42;;;;;;;0.00;0.00;;;11.20;99.90;;;;;;5049291;28;20041;-74
2023/09/16 06:12:08;;;;;;;0.25;0.25;;;11.20;99.90;;;;;;5049699;28;20121;-74
2023/09/16 06:14:34;;;;;;;0.70;0.70;;;11.30;99.90;;;;;;5052507;28;20149;-74
2023/09/16 06:16:59;;;;;;;0.38;0.38;;;11.40;99.90;;;;;;5025621;28;20494;-74
2023/09/16 06:19:26;;;;;;;0.60;0.60;;;11.40;99.90;;;;;;5048980;28;20158;-74
2023/09/16 06:21:53;;;;;;;0.60;0.50;;;11.60;99.90;;;;;;5062111;28;20076;-74
2023/09/16 06:24:18;;;;;;;0.25;0.25;;;11.60;99.90;;;;;;5043925;28;20046;-74
2023/09/16 06:26:44;;;;;;;0.17;0.17;;;11.70;99.90;;;;;;5034491;28;20033;-74
2023/09/16 06:29:10;;;;;;;0.93;0.40;;;11.70;99.90;;;;;;5040092;28;20093;-74
2023/09/16 06:31:35;;;;;;;0.52;0.35;;;11.80;99.90;;;;;;5043614;28;20032;-74
2023/09/16 06:34:02;;;;;;;0.17;0.13;;;11.90;99.90;;;;;;5045527;28;20059;-74
2023/09/16 06:36:28;;;;;;;0.45;0.30;;;12.00;99.90;;;;;;5046314;28;20082;-74
2023/09/16 06:38:53;;;;;;;0.13;0.13;;;12.10;99.90;;;;;;5042953;28;20044;-73
2023/09/16 06:41:20;;;;;;;0.43;0.28;;;12.20;99.90;;;;;;5045503;28;20544;-73
2023/09/16 06:43:46;;;;;;;0.85;0.85;;;12.30;99.90;;;;;;5044697;28;20071;-73
2023/09/16 06:46:11;;;;;;;0.45;0.45;;;12.40;99.90;;;;;;5023940;28;20067;-73
2023/09/16 06:48:37;;;;;;;0.70;0.70;;;12.50;99.90;;;;;;5047844;28;20071;-73
2023/09/16 06:51:03;;;;;;;0.10;0.10;;;12.60;99.90;;;;;;5041607;28;20121;-73
2023/09/16 06:53:28;;;;;;;0.52;0.52;;;12.70;99.90;;;;;;5042638;28;20105;-73
2023/09/16 06:55:55;;;;;;;0.13;0.13;;;12.80;99.90;;;;;;5046645;28;20052;-74
2023/09/16 06:58:21;;;;;;;0.20;0.20;;;12.90;99.90;;;;;;5043233;28;20050;-74
2023/09/16 07:00:50;;;;;;;0.32;0.32;;;13.00;99.90;;;;;;5055575;28;20052;-74
2023/09/16 07:03:15;;;;;;;0.88;0.50;;;13.20;99.90;;;;;;5047255;28;20029;-74
2023/09/16 07:05:50;;;;;;;0.00;0.00;;;13.30;99.90;;;;;;5045153;28;20086;-74
2023/09/16 07:08:17;;;;;;;0.20;0.20;;;13.40;99.90;;;;;;5047903;28;20045;-74
2023/09/16 07:10:43;;;;;;;0.65;0.52;;;13.50;99.90;;;;;;5049994;28;20068;-74
2023/09/16 07:13:08;;;;;;;0.20;0.20;;;13.60;99.90;;;;;;5050210;28;20083;-74
2023/09/16 07:15:35;;;;;;;0.60;0.45;;;13.80;99.90;;;;;;5050069;28;20051;-74
2023/09/16 07:18:01;;;;;;;0.15;0.15;;;13.90;99.90;;;;;;5051321;28;20426;-74
2023/09/16 07:20:27;;;;;;;0.47;0.45;;;14.10;99.90;;;;;;5051045;28;20048;-74
2023/09/16 07:22:55;;;;;;;1.10;0.60;;;14.20;99.90;;;;;;5051604;28;20047;-75
2023/09/16 07:25:21;;;;;;;0.38;0.38;;;14.40;99.90;;;;;;5050202;28;20036;-74
2023/09/16 07:27:46;;;;;;;0.65;0.35;;;14.50;99.90;;;;;;5039043;28;20029;-74
2023/09/16 07:30:14;;;;;;;0.80;0.65;;;14.60;99.90;;;;;;5052017;28;20040;-74
2023/09/16 07:32:41;;;;;;;0.60;0.45;;;14.70;99.90;;;;;;5034038;28;20037;-74
2023/09/16 07:35:07;;;;;;;0.95;0.75;;;14.70;99.90;;;;;;5048235;28;20483;-75
2023/09/16 07:37:33;;;;;;;0.28;0.22;;;14.80;99.90;;;;;;5041516;28;20040;-75
2023/09/16 07:39:58;;;;;;;0.30;0.30;;;14.90;99.90;;;;;;5042811;28;20049;-75
2023/09/16 07:42:24;;;;;;;0.00;0.00;;;15.00;99.90;;;;;;5043075;28;20055;-75
2023/09/16 07:44:49;;;;;;;0.20;0.20;;;15.10;99.90;;;;;;5041164;28;20037;-74
2023/09/16 07:47:15;;;;;;;3.97;1.80;;;15.20;99.90;;;;;;5025920;28;20047;-74
2023/09/16 07:49:41;;;;;;;3.40;1.85;;;15.30;99.90;;;;;;5025298;28;20041;-74
2023/09/16 07:52:06;;;;;;;1.38;0.77;;;15.40;99.90;;;;;;5046374;28;20082;-75
2023/09/16 07:54:32;;;;;;;1.35;1.20;;;15.50;99.90;;;;;;5037127;28;20052;-74
2023/09/16 07:56:57;;;;;;;1.52;1.42;;;15.60;99.90;;;;;;5041622;28;20518;-74
2023/09/16 07:59:23;;;;;;;0.68;0.60;;;15.70;99.90;;;;;;5041519;28;20078;-75
2023/09/16 08:01:49;;;;;;;0.52;0.52;;;15.80;99.90;;;;;;5045809;28;20391;-75
2023/09/16 08:04:14;;;;;;;1.10;0.65;;;15.90;99.90;;;;;;5036241;28;20090;-75
2023/09/16 08:06:49;;;;;;;3.58;1.90;;;16.10;99.90;;;;;;5047062;28;20110;-75
2023/09/16 08:09:16;;;;;;;1.52;1.05;;;16.10;99.90;;;;;;5049303;28;20033;-76
2023/09/16 08:11:41;;;;;;;1.85;1.10;;;16.30;99.90;;;;;;5051751;28;20037;-75
2023/09/16 08:14:26;;;;;;;1.90;1.10;;;16.40;99.90;;;;;;5037287;28;20047;-75
2023/09/16 08:16:54;;;;;;;1.20;0.65;;;16.50;99.90;;;;;;5043723;28;20049;-75
2023/09/16 08:19:19;;;;;;;1.30;1.05;;;16.60;99.90;;;;;;5020435;28;20048;-76
2023/09/16 08:21:45;;;;;;;1.60;0.63;;;16.70;99.90;;;;;;5040651;28;20273;-76
2023/09/16 08:24:10;;;;;;;2.33;1.70;;;16.90;99.90;;;;;;5036085;28;20053;-78
2023/09/16 08:26:36;;;;;;;1.08;1.00;;;17.10;99.90;;;;;;5069725;28;20037;-77
2023/09/16 08:29:02;;;;;;;1.17;1.00;;;17.20;99.90;;;;;;5042059;28;20491;-76
2023/09/16 08:31:28;;;;;;;0.50;0.50;;;17.40;99.90;;;;;;5039283;28;20492;-78
2023/09/16 08:33:55;;;;;;;0.75;0.75;;;17.50;99.90;;;;;;5048074;28;20044;-77
2023/09/16 08:36:21;;;;;;;0.63;0.63;;;17.50;99.90;;;;;;5057528;28;20086;-77
2023/09/16 08:38:48;;;;;;;1.08;1.08;;;17.60;99.90;;;;;;5057545;28;20440;-77
2023/09/16 08:41:40;;;;;;;0.80;0.43;;;17.70;99.90;;;;;;5039349;28;20132;-77
2023/09/16 08:44:09;;;;;;;0.50;0.50;;;17.80;99.90;;;;;;5033338;28;20394;-77
2023/09/16 08:46:54;;;;;;;0.77;0.40;;;18.00;99.90;;;;;;5039499;28;20091;-77
2023/09/16 08:49:22;;;;;;;0.38;0.38;;;18.10;99.90;;;;;;5036808;28;20041;-78
2023/09/16 08:51:48;;;;;;;0.47;0.35;;;18.20;99.90;;;;;;5019790;28;20037;-77
2023/09/16 08:54:18;;;;;;;0.30;0.30;;;18.40;99.90;;;;;;5037951;28;20052;-77
2023/09/16 08:56:44;;;;;;;0.88;0.63;;;18.50;99.90;;;;;;5036737;28;20084;-75
2023/09/16 08:59:11;;;;;;;0.55;0.55;;;18.60;99.90;;;;;;5049552;28;20496;-77
2023/09/16 09:01:37;;;;;;;0.82;0.82;;;18.70;99.90;;;;;;5071958;28;20388;-76
2023/09/16 09:04:05;;;;;;;1.35;0.75;;;18.80;99.90;;;;;;5071978;28;20037;-77
2023/09/16 09:06:32;;;;;;;0.73;0.73;;;18.90;99.90;;;;;;5040988;28;20112;-76
2023/09/16 09:08:57;;;;;;;1.27;0.32;;;19.10;99.90;;;;;;5048877;28;20055;-76
2023/09/16 09:11:24;;;;;;;0.68;0.68;;;19.20;99.90;;;;;;5045068;28;20045;-76
2023/09/16 09:13:51;;;;;;;2.92;1.85;;;19.30;99.90;;;;;;5071767;28;20163;-75
2023/09/16 09:16:19;;;;;;;0.57;0.57;;;19.40;99.90;;;;;;5043338;28;20036;-75
2023/09/16 09:18:46;;;;;;;0.45;0.45;;;19.40;99.90;;;;;;5046323;28;20044;-76
2023/09/16 09:21:13;;;;;;;0.35;0.20;;;19.40;99.90;;;;;;5058908;28;20044;-76
2023/09/16 09:23:39;;;;;;;0.50;0.50;;;19.50;99.90;;;;;;5056114;28;20535;-75
2023/09/16 09:26:05;;;;;;;0.40;0.40;;;19.60;99.90;;;;;;5045146;28;20403;-76
2023/09/16 09:28:32;;;;;;;0.73;0.60;;;19.70;99.90;;;;;;5043493;28;20037;-76
2023/09/16 09:30:58;;;;;;;0.80;0.77;;;19.70;99.90;;;;;;5049730;28;20040;-76
2023/09/16 09:33:56;;;;;;;0.32;0.32;;;19.80;99.90;;;;;;5045378;28;20420;-76
2023/09/16 09:36:22;;;;;;;1.17;0.85;;;19.80;99.90;;;;;;5061677;28;20033;-76
2023/09/16 09:45:53;;;;;;;1.02;0.55;;;20.10;99.90;;;;;;5063159;28;20602;-73
2023/09/16 09:48:18;;;;;;;0.60;0.60;;;20.10;99.90;;;;;;5045813;28;20068;-75
2023/09/16 09:50:44;;;;;;;3.67;1.77;;;20.20;99.90;;;;;;5044037;28;20056;-80
2023/09/16 09:53:10;;;;;;;0.40;0.40;;;20.20;99.90;;;;;;5037277;28;20033;-76
2023/09/16 09:55:35;;;;;;;4.10;1.20;;;20.30;99.90;;;;;;5048232;28;20191;-78
2023/09/16 09:58:01;;;;;;;1.17;1.10;;;20.40;99.90;;;;;;5049601;28;20401;-74
2023/09/16 10:00:28;;;;;;;2.28;1.08;;;20.40;99.90;;;;;;5046356;28;20044;-73
2023/09/16 10:02:54;;;;;;;0.75;0.52;;;20.50;99.90;;;;;;5051812;28;20040;-76
2023/09/16 10:05:21;;;;;;;0.60;0.60;;;20.60;99.90;;;;;;5035329;28;20041;-76
2023/09/16 10:07:48;;;;;;;0.85;0.82;;;20.60;99.90;;;;;;5049095;28;20044;-78
2023/09/16 10:10:22;;;;;;;1.08;0.65;;;20.60;99.90;;;;;;5052647;28;20079;-79
2023/09/16 10:12:50;;;;;;;4.35;1.08;;;20.80;99.90;;;;;;5047570;28;20475;-76
2023/09/16 10:15:16;;;;;;;2.10;1.92;;;20.90;99.90;;;;;;5045187;28;20036;-76
2023/09/16 10:17:43;;;;;;;2.10;0.82;;;20.90;99.90;;;;;;5043349;28;20488;-75
2023/09/16 10:20:11;;;;;;;1.13;0.85;;;21.00;99.90;;;;;;5051076;28;20495;-75
2023/09/16 10:22:39;;;;;;;0.88;0.68;;;21.10;99.90;;;;;;5047108;28;20570;-74
2023/09/16 10:25:05;;;;;;;0.57;0.57;;;21.10;99.90;;;;;;5085299;28;20051;-75
2023/09/16 10:27:36;;;;;;;0.75;0.63;;;21.20;99.90;;;;;;5075854;28;20032;-75
2023/09/16 10:30:03;;;;;;;1.40;1.25;;;21.30;99.90;;;;;;5044997;28;20067;-74
2023/09/16 10:32:29;;;;;;;2.67;0.73;;;21.40;99.90;;;;;;5051319;28;20036;-76
2023/09/16 10:34:58;;;;;;;0.40;0.40;;;21.50;99.90;;;;;;5038306;28;20487;-74
2023/09/16 10:37:25;;;;;;;1.55;0.52;;;21.50;99.90;;;;;;5044575;28;20288;-75
2023/09/16 10:39:53;;;;;;;0.38;0.30;;;21.60;99.90;;;;;;5055853;28;20040;-74
2023/09/16 10:42:21;;;;;;;0.28;0.28;;;21.60;99.90;;;;;;5046565;28;20044;-74
2023/09/16 10:44:47;;;;;;;0.30;0.30;;;21.70;99.90;;;;;;5028252;28;20392;-74
2023/09/16 10:47:16;;;;;;;1.35;0.20;;;21.80;99.90;;;;;;5042177;28;20441;-74
2023/09/16 10:49:42;;;;;;;1.13;0.82;;;22.00;99.90;;;;;;5042290;28;20055;-74
2023/09/16 10:52:10;;;;;;;0.98;0.75;;;22.10;99.90;;;;;;5045241;28;20059;-74
2023/09/16 10:54:45;;;;;;;0.20;0.20;;;22.30;99.90;;;;;;5038797;28;20048;-73
2023/09/16 10:57:24;;;;;;;0.85;0.60;;;22.30;99.90;;;;;;5043249;28;20033;-74
2023/09/16 10:59:52;;;;;;;0.20;0.15;;;22.40;99.90;;;;;;5033463;28;20354;-74
2023/09/16 11:02:23;;;;;;;1.30;0.55;;;22.40;99.90;;;;;;5070474;28;20043;-74
2023/09/16 11:04:52;;;;;;;0.10;0.10;;;22.40;99.90;;;;;;5040605;28;20173;-74
2023/09/16 11:07:19;;;;;;;0.15;0.15;;;22.60;99.90;;;;;;5042760;28;20033;-74
2023/09/16 11:09:47;;;;;;;2.17;0.47;;;22.60;99.90;;;;;;5071058;28;20476;-75
2023/09/16 11:12:13;;;;;;;3.38;1.02;;;22.70;99.90;;;;;;5039261;28;20037;-76
2023/09/16 11:14:38;;;;;;;0.20;0.10;;;22.80;99.90;;;;;;5042546;28;20379;-76
2023/09/16 11:17:12;;;;;;;0.60;0.60;;;22.80;99.90;;;;;;5043076;28;20040;-73
2023/09/16 11:19:37;;;;;;;0.50;0.50;;;22.80;99.90;;;;;;5036415;28;20044;-73
2023/09/16 11:22:03;;;;;;;0.70;0.65;;;22.80;99.90;;;;;;5046809;28;20049;-74
2023/09/16 11:24:29;;;;;;;0.30;0.25;;;22.80;99.90;;;;;;5035900;28;20090;-76
2023/09/16 11:26:56;;;;;;;0.43;0.38;;;22.70;99.90;;;;;;5047276;28;20434;-75
2023/09/16 11:29:24;;;;;;;1.45;0.40;;;22.70;99.90;;;;;;5050023;28;20044;-74
2023/09/16 11:31:50;;;;;;;0.43;0.43;;;22.80;99.90;;;;;;5054389;28;20395;-72
2023/09/16 11:34:20;;;;;;;0.30;0.30;;;22.80;99.90;;;;;;5051925;28;20037;-73
2023/09/16 11:36:54;;;;;;;0.30;0.30;;;22.90;99.90;;;;;;5044395;28;20120;-74
2023/09/16 11:39:33;;;;;;;0.10;0.10;;;22.80;99.90;;;;;;5049337;28;20036;-75
2023/09/16 11:41:59;;;;;;;0.40;0.40;;;22.80;99.90;;;;;;5076978;28;20044;-74
2023/09/16 11:44:25;;;;;;;0.10;0.10;;;22.70;99.90;;;;;;5040577;28;20064;-74
2023/09/16 11:46:50;;;;;;;1.45;0.45;;;22.70;99.90;;;;;;5045670;28;20049;-73
2023/09/16 11:49:16;;;;;;;0.85;0.30;;;22.70;99.90;;;;;;5054698;28;20064;-75
2023/09/16 11:51:42;;;;;;;0.20;0.20;;;22.80;99.90;;;;;;5031647;28;20533;-74
2023/09/16 11:54:08;;;;;;;1.45;0.85;;;22.80;99.90;;;;;;5039049;28;20040;-77
2023/09/16 11:56:40;;;;;;;0.65;0.65;;;22.90;99.90;;;;;;5023487;28;20109;-77
2023/09/16 11:59:06;;;;;;;0.77;0.47;;;23.00;99.90;;;;;;5038513;28;20551;-77
2023/09/16 12:01:34;;;;;;;0.40;0.40;;;23.10;99.90;;;;;;5043189;28;20044;-72
2023/09/16 12:04:01;;;;;;;0.38;0.20;;;23.10;99.90;;;;;;5045435;28;20036;-75
2023/09/16 12:06:27;;;;;;;0.20;0.20;;;23.10;99.90;;;;;;5027942;28;20033;-76
2023/09/16 12:08:55;;;;;;;3.92;1.00;;;23.10;99.90;;;;;;5024312;28;20040;-76
2023/09/16 12:11:22;;;;;;;0.20;0.10;;;23.10;99.90;;;;;;5069854;28;20037;-76
2023/09/16 12:13:48;;;;;;;0.13;0.13;;;23.10;99.90;;;;;;5043428;28;20040;-76
2023/09/16 12:16:15;;;;;;;0.17;0.17;;;23.10;99.90;;;;;;5044872;28;20052;-76
2023/09/16 12:18:44;;;;;;;4.60;0.85;;;23.20;99.90;;;;;;5041157;28;20113;-75
2023/09/16 12:21:10;;;;;;;0.38;0.38;;;23.20;99.90;;;;;;5079402;28;20131;-78
2023/09/16 12:24:05;;;;;;;0.20;0.20;;;23.20;99.90;;;;;;5056592;28;20051;-76
2023/09/16 12:26:31;;;;;;;0.73;0.73;;;23.20;99.90;;;;;;5046089;28;20044;-75
2023/09/16 12:28:56;;;;;;;2.83;1.35;;;23.20;99.90;;;;;;5017861;28;20114;-76
2023/09/16 12:31:23;;;;;;;0.50;0.35;;;23.30;99.90;;;;;;5034685;28;20067;-76
2023/09/16 12:33:54;;;;;;;0.93;0.30;;;23.20;99.90;;;;;;5045800;28;20036;-75
2023/09/16 12:36:29;;;;;;;0.30;0.30;;;23.20;99.90;;;;;;5035757;28;20044;-75
2023/09/16 12:38:58;;;;;;;0.50;0.50;;;23.20;99.90;;;;;;5034613;28;20033;-75
2023/09/16 12:41:25;;;;;;;0.30;0.30;;;23.20;99.90;;;;;;5041807;28;20045;-74
2023/09/16 12:43:51;;;;;;;0.50;0.30;;;23.20;99.90;;;;;;5032013;28;20049;-75
2023/09/16 12:46:21;;;;;;;1.05;0.95;;;23.20;99.90;;;;;;5037922;28;20036;-77
2023/09/16 12:48:50;;;;;;;0.55;0.47;;;23.20;99.90;;;;;;5049907;28;20036;-74
2023/09/16 12:51:19;;;;;;;0.30;0.30;;;23.20;99.90;;;;;;5053072;28;20059;-73
2023/09/16 12:53:45;;;;;;;0.40;0.30;;;23.30;99.90;;;;;;5045257;28;20048;-72